sensor_id;sensor_type;location;lat;lon;timestamp;temperature;humidity
16253;DHT22;8234;41.480;2.306;2022-10-15T00:00:27;18.10;99.90
16253;DHT22;8234;41.480;2.306;2022-10-15T00:10:33;18.10;99.90
16253;DHT22;8234;41.480;2.306;2022-10-15T00:20:40;18.20;99.90
16253;DHT22;8234;41.480;2.306;2022-10-15T00:30:45;18.20;99.90
16253;DHT22;8234;41.480;2.306;2022-10-15T00:40:49;18.10;99.90
16253;DHT22;8234;41.480;2.306;2022-10-15T00:50:54;18.10;99.90
16253;DHT22;8234;41.480;2.306;2022-10-15T01:00:58;18.00;99.90
16253;DHT22;8234;41.480;2.306;2022-10-15T01:11:13;18.10;99.90
16253;DHT22;8234;41.480;2.306;2022-10-15T01:21:24;18.00;99.90
16253;DHT22;8234;41.480;2.306;2022-10-15T01:31:36;18.00;99.90
16253;DHT22;8234;41.480;2.306;2022-10-15T01:41:45;17.90;99.90
16253;DHT22;8234;41.480;2.306;2022-10-15T01:51:52;17.90;99.90
16253;DHT22;8234;41.480;2.306;2022-10-15T02:01:57;18.00;99.90
16253;DHT22;8234;41.480;2.306;2022-10-15T02:12:09;17.80;99.90
16253;DHT22;8234;41.480;2.306;2022-10-15T02:22:18;17.90;99.90
16253;DHT22;8234;41.480;2.306;2022-10-15T02:32:24;17.80;99.90
16253;DHT22;8234;41.480;2.306;2022-10-15T02:42:29;17.70;99.90
16253;DHT22;8234;41.480;2.306;2022-10-15T02:52:34;17.60;99.90
16253;DHT22;8234;41.480;2.306;2022-10-15T03:02:38;17.70;99.90
16253;DHT22;8234;41.480;2.306;2022-10-15T03:12:43;17.70;99.90
16253;DHT22;8234;41.480;2.306;2022-10-15T03:22:47;17.60;99.90
16253;DHT22;8234;41.480;2.306;2022-10-15T03:32:52;17.50;99.90
16253;DHT22;8234;41.480;2.306;2022-10-15T03:42:55;17.50;99.90
16253;DHT22;8234;41.480;2.306;2022-10-15T03:53:02;17.50;99.90
16253;DHT22;8234;41.480;2.306;2022-10-15T04:03:06;17.30;99.90
16253;DHT22;8234;41.480;2.306;2022-10-15T04:13:11;17.30;99.90
16253;DHT22;8234;41.480;2.306;2022-10-15T04:23:16;17.20;99.90
16253;DHT22;8234;41.480;2.306;2022-10-15T04:33:21;16.80;99.90
16253;DHT22;8234;41.480;2.306;2022-10-15T04:43:25;16.70;99.90
16253;DHT22;8234;41.480;2.306;2022-10-15T04:53:31;16.70;99.90
16253;DHT22;8234;41.480;2.306;2022-10-15T05:03:35;16.70;99.90
16253;DHT22;8234;41.480;2.306;2022-10-15T05:13:45;16.70;99.90
16253;DHT22;8234;41.480;2.306;2022-10-15T05:23:49;16.70;99.90
16253;DHT22;8234;41.480;2.306;2022-10-15T05:33:54;16.60;99.90
16253;DHT22;8234;41.480;2.306;2022-10-15T05:43:58;16.60;99.90
16253;DHT22;8234;41.480;2.306;2022-10-15T05:54:03;16.70;99.90
16253;DHT22;8234;41.480;2.306;2022-10-15T06:04:07;16.70;99.90
16253;DHT22;8234;41.480;2.306;2022-10-15T06:14:13;16.60;99.90
16253;DHT22;8234;41.480;2.306;2022-10-15T06:24:16;16.80;99.90
16253;DHT22;8234;41.480;2.306;2022-10-15T06:34:21;17.10;99.90
16253;DHT22;8234;41.480;2.306;2022-10-15T06:44:25;17.30;99.90
16253;DHT22;8234;41.480;2.306;2022-10-15T06:54:30;17.50;99.90
16253;DHT22;8234;41.480;2.306;2022-10-15T07:04:34;17.60;99.90
16253;DHT22;8234;41.480;2.306;2022-10-15T07:14:39;18.10;99.90
16253;DHT22;8234;41.480;2.306;2022-10-15T07:24:43;18.40;99.90
16253;DHT22;8234;41.480;2.306;2022-10-15T07:34:48;18.90;99.90
16253;DHT22;8234;41.480;2.306;2022-10-15T07:44:52;19.50;99.90
16253;DHT22;8234;41.480;2.306;2022-10-15T10:28:47;24.20;99.90
16253;DHT22;8234;41.480;2.306;2022-10-15T10:39:20;24.50;99.90
16253;DHT22;8234;41.480;2.306;2022-10-15T10:49:32;25.40;99.90
16253;DHT22;8234;41.480;2.306;2022-10-15T10:59:39;25.70;99.90
16253;DHT22;8234;41.480;2.306;2022-10-15T11:09:56;26.40;99.90
16253;DHT22;8234;41.480;2.306;2022-10-15T11:20:10;26.60;99.90
16253;DHT22;8234;41.480;2.306;2022-10-15T11:30:45;26.90;99.90
16253;DHT22;8234;41.480;2.306;2022-10-15T11:41:04;27.30;99.90
16253;DHT22;8234;41.480;2.306;2022-10-15T11:51:18;27.10;99.90
16253;DHT22;8234;41.480;2.306;2022-10-15T12:01:32;27.20;99.90
16253;DHT22;8234;41.480;2.306;2022-10-15T12:11:44;27.50;99.90
16253;DHT22;8234;41.480;2.306;2022-10-15T12:22:02;27.40;99.90
16253;DHT22;8234;41.480;2.306;2022-10-15T12:32:21;28.20;99.90
16253;DHT22;8234;41.480;2.306;2022-10-15T12:42:27;28.40;99.90
16253;DHT22;8234;41.480;2.306;2022-10-15T12:52:55;28.60;99.90
16253;DHT22;8234;41.480;2.306;2022-10-15T13:03:10;28.80;99.90
16253;DHT22;8234;41.480;2.306;2022-10-15T13:13:21;28.30;99.90
16253;DHT22;8234;41.480;2.306;2022-10-15T13:23:27;28.20;99.90
16253;DHT22;8234;41.480;2.306;2022-10-15T13:33:38;28.70;99.90
16253;DHT22;8234;41.480;2.306;2022-10-15T13:43:50;29.20;99.90
16253;DHT22;8234;41.480;2.306;2022-10-15T13:53:58;29.30;99.90
16253;DHT22;8234;41.480;2.306;2022-10-15T14:04:03;29.60;99.90
16253;DHT22;8234;41.480;2.306;2022-10-15T14:14:29;29.90;99.90
16253;DHT22;8234;41.480;2.306;2022-10-15T14:24:34;29.50;99.90
16253;DHT22;8234;41.480;2.306;2022-10-15T14:34:39;29.50;99.90
16253;DHT22;8234;41.480;2.306;2022-10-15T14:44:44;29.50;99.90
16253;DHT22;8234;41.480;2.306;2022-10-15T14:55:00;29.60;99.90
16253;DHT22;8234;41.480;2.306;2022-10-15T15:05:13;29.20;99.90
16253;DHT22;8234;41.480;2.306;2022-10-15T15:15:23;28.40;99.90
16253;DHT22;8234;41.480;2.306;2022-10-15T15:25:29;27.10;99.90
16253;DHT22;8234;41.480;2.306;2022-10-15T15:35:40;26.90;99.90
16253;DHT22;8234;41.480;2.306;2022-10-15T15:45:52;25.80;99.90
16253;DHT22;8234;41.480;2.306;2022-10-15T15:55:57;25.60;99.90
16253;DHT22;8234;41.480;2.306;2022-10-15T16:06:01;24.90;99.90
16253;DHT22;8234;41.480;2.306;2022-10-15T16:16:08;25.10;99.90
16253;DHT22;8234;41.480;2.306;2022-10-15T16:26:11;24.60;99.90
16253;DHT22;8234;41.480;2.306;2022-10-15T16:36:17;24.20;99.90
16253;DHT22;8234;41.480;2.306;2022-10-15T16:46:20;24.00;99.90
16253;DHT22;8234;41.480;2.306;2022-10-15T16:56:28;23.80;99.90
16253;DHT22;8234;41.480;2.306;2022-10-15T17:06:32;23.80;99.90
16253;DHT22;8234;41.480;2.306;2022-10-15T17:16:39;23.60;99.90
16253;DHT22;8234;41.480;2.306;2022-10-15T17:26:44;23.50;99.90
16253;DHT22;8234;41.480;2.306;2022-10-15T17:36:49;23.10;99.90
16253;DHT22;8234;41.480;2.306;2022-10-15T17:46:55;23.30;99.90
16253;DHT22;8234;41.480;2.306;2022-10-15T17:57:00;22.90;99.90
16253;DHT22;8234;41.480;2.306;2022-10-15T18:07:04;22.80;99.90
16253;DHT22;8234;41.480;2.306;2022-10-15T18:17:10;23.20;99.90
16253;DHT22;8234;41.480;2.306;2022-10-15T18:27:13;23.20;99.90
16253;DHT22;8234;41.480;2.306;2022-10-15T18:37:18;23.20;99.90
16253;DHT22;8234;41.480;2.306;2022-10-15T18:47:22;23.20;99.90
16253;DHT22;8234;41.480;2.306;2022-10-15T18:57:27;23.10;99.90
16253;DHT22;8234;41.480;2.306;2022-10-15T19:07:32;22.90;99.90
16253;DHT22;8234;41.480;2.306;2022-10-15T19:17:37;22.80;99.90
16253;DHT22;8234;41.480;2.306;2022-10-15T19:27:41;22.80;99.90
16253;DHT22;8234;41.480;2.306;2022-10-15T19:37:46;22.80;99.90
16253;DHT22;8234;41.480;2.306;2022-10-15T19:47:50;22.70;99.90
16253;DHT22;8234;41.480;2.306;2022-10-15T19:57:55;22.90;99.90
16253;DHT22;8234;41.480;2.306;2022-10-15T20:07:59;22.80;99.90
16253;DHT22;8234;41.480;2.306;2022-10-15T20:18:04;22.60;99.90
16253;DHT22;8234;41.480;2.306;2022-10-15T20:28:08;22.20;99.90
16253;DHT22;8234;41.480;2.306;2022-10-15T20:38:13;21.80;99.90
16253;DHT22;8234;41.480;2.306;2022-10-15T20:48:19;21.40;99.90
16253;DHT22;8234;41.480;2.306;2022-10-15T20:58:26;21.30;99.90
16253;DHT22;8234;41.480;2.306;2022-10-15T21:08:30;21.00;99.90
16253;DHT22;8234;41.480;2.306;2022-10-15T21:18:36;20.80;99.90
16253;DHT22;8234;41.480;2.306;2022-10-15T21:28:40;20.60;99.90
16253;DHT22;8234;41.480;2.306;2022-10-15T21:38:45;20.50;99.90
16253;DHT22;8234;41.480;2.306;2022-10-15T21:48:50;20.50;99.90
16253;DHT22;8234;41.480;2.306;2022-10-15T21:58:56;20.40;99.90
16253;DHT22;8234;41.480;2.306;2022-10-15T22:09:00;20.40;99.90
16253;DHT22;8234;41.480;2.306;2022-10-15T22:19:07;20.30;99.90
16253;DHT22;8234;41.480;2.306;2022-10-15T22:29:16;20.30;99.90
16253;DHT22;8234;41.480;2.306;2022-10-15T22:39:21;20.10;99.90
16253;DHT22;8234;41.480;2.306;2022-10-15T22:49:25;20.20;99.90
16253;DHT22;8234;41.480;2.306;2022-10-15T22:59:30;20.20;99.90
16253;DHT22;8234;41.480;2.306;2022-10-15T23:09:34;20.20;99.90
16253;DHT22;8234;41.480;2.306;2022-10-15T23:19:39;20.10;99.90
16253;DHT22;8234;41.480;2.306;2022-10-15T23:29:43;20.00;99.90
16253;DHT22;8234;41.480;2.306;2022-10-15T23:39:59;19.80;99.90
16253;DHT22;8234;41.480;2.306;2022-10-15T23:50:03;19.70;99.90
